createdAt,value
2018-09-05T00:00:06.496Z,12.10
2018-09-05T00:02:34.158Z,12.10
2018-09-05T00:05:01.836Z,12.10
2018-09-05T00:07:29.607Z,12.00
2018-09-05T00:14:52.387Z,12.10
2018-09-05T00:17:20.066Z,12.10
2018-09-05T00:19:47.731Z,12.00
2018-09-05T00:22:15.502Z,11.80
2018-09-05T00:24:43.306Z,11.80
2018-09-05T00:27:10.969Z,11.70
2018-09-05T00:29:38.680Z,11.70
2018-09-05T00:32:06.363Z,11.60
2018-09-05T00:34:34.063Z,11.60
2018-09-05T00:39:29.302Z,11.70
2018-09-05T00:44:24.577Z,11.60
2018-09-05T00:46:52.188Z,11.60
2018-09-05T00:49:19.906Z,11.60
2018-09-05T00:51:47.545Z,11.60
2018-09-05T00:54:15.231Z,11.60
2018-09-05T00:56:42.977Z,11.60
2018-09-05T00:59:10.641Z,11.60
2018-09-05T01:01:38.277Z,11.60
2018-09-05T01:06:33.717Z,11.60
2018-09-05T01:09:01.362Z,11.60
2018-09-05T01:11:29.051Z,11.50
2018-09-05T01:13:56.689Z,11.50
2018-09-05T01:16:24.427Z,11.40
2018-09-05T01:18:52.052Z,11.30
2018-09-05T01:21:19.786Z,11.30
2018-09-05T01:23:47.456Z,11.20
2018-09-05T01:26:15.101Z,11.20
2018-09-05T01:31:10.321Z,11.10
2018-09-05T01:33:37.961Z,11.10
2018-09-05T01:36:11.675Z,11.10
2018-09-05T01:38:40.329Z,11.00
2018-09-05T01:43:35.733Z,10.90
2018-09-05T01:46:03.447Z,11.00
2018-09-05T01:48:31.144Z,11.00
2018-09-05T01:50:58.831Z,11.00
2018-09-05T01:53:26.603Z,11.00
2018-09-05T01:55:54.280Z,10.90
2018-09-05T02:00:49.542Z,10.90
2018-09-05T02:03:17.212Z,10.90
2018-09-05T02:05:44.888Z,10.90
2018-09-05T02:08:12.596Z,11.00
2018-09-05T02:10:40.234Z,11.00
2018-09-05T02:13:07.942Z,11.00
2018-09-05T02:18:03.231Z,10.90
2018-09-05T02:20:30.858Z,10.80
2018-09-05T02:22:58.486Z,10.80
2018-09-05T02:25:26.229Z,10.80
2018-09-05T02:27:53.942Z,10.80
2018-09-05T02:32:49.178Z,10.70
2018-09-05T02:35:16.887Z,10.80
2018-09-05T02:37:44.632Z,10.70
2018-09-05T02:42:39.892Z,10.60
2018-09-05T02:45:07.658Z,10.70
2018-09-05T02:47:35.562Z,10.60
2018-09-05T02:50:03.427Z,10.70
2018-09-05T02:54:59.169Z,10.70
2018-09-05T02:57:26.821Z,10.60
2018-09-05T02:59:54.512Z,10.60
2018-09-05T03:02:22.207Z,10.60
2018-09-05T03:04:49.954Z,10.60
2018-09-05T03:07:17.614Z,10.50
2018-09-05T03:09:45.290Z,10.50
2018-09-05T03:14:44.231Z,10.50
2018-09-05T03:17:12.011Z,10.50
2018-09-05T03:19:39.689Z,10.50
2018-09-05T03:22:07.380Z,10.50
2018-09-05T03:24:35.044Z,10.60
2018-09-05T03:29:30.280Z,10.70
2018-09-05T03:31:58.024Z,10.50
2018-09-05T03:34:25.657Z,10.50
2018-09-05T03:36:53.391Z,13.20
2018-09-05T03:39:21.037Z,10.50
2018-09-05T03:44:16.268Z,10.50
2018-09-05T03:46:43.949Z,10.50
2018-09-05T03:49:11.622Z,10.40
2018-09-05T03:56:34.497Z,10.30
2018-09-05T03:59:02.187Z,10.30
2018-09-05T04:01:29.883Z,10.30
2018-09-05T04:06:25.192Z,10.30
2018-09-05T04:08:52.975Z,10.20
2018-09-05T04:11:20.638Z,10.30
2018-09-05T04:13:48.893Z,10.30
2018-09-05T04:16:16.568Z,10.30
2018-09-05T04:21:11.779Z,10.30
2018-09-05T04:26:16.824Z,10.30
2018-09-05T04:28:44.545Z,10.30
2018-09-05T04:31:13.484Z,10.40
2018-09-05T04:33:41.448Z,10.40
2018-09-05T04:36:11.194Z,10.40
2018-09-05T04:38:39.054Z,10.40
2018-09-05T04:41:06.802Z,10.40
2018-09-05T04:46:02.084Z,10.40
2018-09-05T04:50:57.402Z,10.50
2018-09-05T04:53:25.104Z,10.50
2018-09-05T04:55:52.854Z,10.40
2018-09-05T04:58:21.104Z,10.40
2018-09-05T05:00:48.785Z,10.40
2018-09-05T05:08:11.580Z,10.40
2018-09-05T05:10:39.285Z,10.40
2018-09-05T05:13:06.944Z,10.50
2018-09-05T05:15:34.698Z,10.50
2018-09-05T05:20:29.915Z,10.50
2018-09-05T05:22:57.752Z,10.50
2018-09-05T05:25:25.424Z,10.50
2018-09-05T05:27:53.244Z,10.60
2018-09-05T05:32:48.506Z,10.70
2018-09-05T05:35:16.167Z,10.80
2018-09-05T05:37:43.918Z,10.80
2018-09-05T05:40:11.580Z,10.90
2018-09-05T05:42:39.246Z,10.90
2018-09-05T05:45:06.968Z,11.00
2018-09-05T05:47:34.980Z,11.00
2018-09-05T05:50:03.299Z,11.10
2018-09-05T05:57:27.446Z,11.20
2018-09-05T05:59:55.145Z,11.20
2018-09-05T06:02:22.824Z,11.20
2018-09-05T06:04:50.554Z,11.30
2018-09-05T06:07:18.235Z,11.30
2018-09-05T06:12:13.581Z,11.40
2018-09-05T06:14:41.216Z,11.50
2018-09-05T06:17:08.914Z,11.50
2018-09-05T06:19:36.593Z,11.60
2018-09-05T06:22:04.334Z,11.60
2018-09-05T06:24:32.633Z,11.60
2018-09-05T06:27:00.295Z,11.70
2018-09-05T06:29:28.065Z,11.80
2018-09-05T06:31:55.749Z,11.80
2018-09-05T06:39:18.601Z,12.10
2018-09-05T06:41:46.319Z,12.10
2018-09-05T06:44:13.958Z,12.10
2018-09-05T06:46:41.679Z,12.20
2018-09-05T06:49:09.355Z,12.30
2018-09-05T06:51:37.059Z,12.40
2018-09-05T06:54:04.780Z,12.50
2018-09-05T06:56:32.488Z,12.60
2018-09-05T06:59:00.209Z,12.60
2018-09-05T07:01:27.909Z,12.60
2018-09-05T07:03:55.643Z,12.70
2018-09-05T07:06:23.382Z,12.70
2018-09-05T07:08:51.004Z,12.80
2018-09-05T07:11:18.820Z,12.80
2018-09-05T07:13:46.493Z,12.90
2018-09-05T07:16:14.222Z,13.00
2018-09-05T07:18:41.970Z,13.10
2018-09-05T07:23:37.398Z,13.30
2018-09-05T07:26:05.798Z,13.40
2018-09-05T07:31:01.177Z,13.70
2018-09-05T07:33:28.744Z,13.90
2018-09-05T07:35:56.435Z,14.00
2018-09-05T07:38:24.126Z,14.20
2018-09-05T07:40:52.103Z,14.40
2018-09-05T07:45:47.324Z,14.70
2018-09-05T07:48:15.094Z,14.90
2018-09-05T07:50:42.825Z,15.10
2018-09-05T07:53:10.500Z,15.30
2018-09-05T07:55:38.220Z,15.40
2018-09-05T07:58:05.946Z,15.50
2018-09-05T08:00:33.753Z,15.60
2018-09-05T08:05:29.000Z,15.80
2018-09-05T08:07:56.710Z,15.90
2018-09-05T08:10:24.443Z,16.00
2018-09-05T08:12:52.118Z,16.20
2018-09-05T08:15:19.864Z,16.30
2018-09-05T08:25:10.481Z,16.90
2018-09-05T08:27:38.203Z,17.10
2018-09-05T08:30:05.983Z,17.50
2018-09-05T08:32:33.685Z,17.90
2018-09-05T08:35:01.587Z,18.50
2018-09-05T08:37:29.431Z,19.00
2018-09-05T08:39:56.828Z,19.50
2018-09-05T08:44:52.344Z,20.20
2018-09-05T08:47:19.948Z,20.60
2018-09-05T08:49:47.635Z,20.80
2018-09-05T08:52:15.359Z,21.00
2018-09-05T08:57:10.587Z,21.20
2018-09-05T08:59:38.244Z,21.20
2018-09-05T09:02:05.966Z,21.30
2018-09-05T09:04:33.732Z,21.20
2018-09-05T09:07:01.420Z,21.30
2018-09-05T09:09:29.106Z,21.00
2018-09-05T09:11:56.759Z,20.90
2018-09-05T09:16:52.847Z,20.90
2018-09-05T09:19:20.536Z,20.90
2018-09-05T09:21:48.869Z,20.90
2018-09-05T09:24:16.658Z,20.90
2018-09-05T09:26:44.442Z,20.90
2018-09-05T09:29:12.129Z,21.10
2018-09-05T09:34:07.478Z,21.60
2018-09-05T09:36:35.155Z,21.70
2018-09-05T09:39:03.071Z,22.00
2018-09-05T09:41:30.724Z,22.20
2018-09-05T09:43:58.380Z,22.20
2018-09-05T09:46:26.072Z,22.30
2018-09-05T09:48:53.739Z,22.70
2018-09-05T09:51:22.176Z,23.00
2018-09-05T09:53:50.471Z,23.10
2018-09-05T09:56:18.187Z,23.50
2018-09-05T09:58:45.915Z,24.20
2018-09-05T10:01:19.055Z,24.80
2018-09-05T10:03:52.337Z,25.50
2018-09-05T10:06:25.356Z,26.10
2018-09-05T10:08:58.707Z,26.50
2018-09-05T10:14:04.980Z,27.10
2018-09-05T10:16:38.735Z,27.40
2018-09-05T10:19:07.664Z,27.60
2018-09-05T10:21:35.320Z,28.00
2018-09-05T10:24:03.037Z,28.20
2018-09-05T10:28:58.282Z,29.30
2018-09-05T10:31:26.003Z,29.30
2018-09-05T10:33:53.748Z,30.10
2018-09-05T10:36:21.463Z,29.60
2018-09-05T10:38:49.075Z,29.50
2018-09-05T10:41:16.737Z,29.70
2018-09-05T10:43:44.391Z,29.60
2018-09-05T10:46:12.163Z,29.10
2018-09-05T10:51:07.392Z,27.20
2018-09-05T10:53:35.071Z,26.30
2018-09-05T10:58:30.313Z,24.80
2018-09-05T11:00:58.010Z,24.90
2018-09-05T11:03:25.651Z,26.00
2018-09-05T11:05:53.372Z,27.30
2018-09-05T11:08:21.042Z,28.10
2018-09-05T11:10:48.784Z,28.30
2018-09-05T11:13:16.412Z,28.50
2018-09-05T11:15:44.056Z,27.70
2018-09-05T11:18:11.780Z,26.70
2018-09-05T11:20:39.555Z,26.20
2018-09-05T11:23:07.242Z,25.50
2018-09-05T11:25:34.930Z,24.80
2018-09-05T11:28:02.571Z,24.40
2018-09-05T11:30:30.246Z,24.30
2018-09-05T11:32:58.005Z,24.90
2018-09-05T11:35:25.687Z,25.80
2018-09-05T11:37:53.344Z,26.20
2018-09-05T11:40:21.095Z,26.00
2018-09-05T11:45:18.355Z,25.20
2018-09-05T11:50:13.597Z,24.30
2018-09-05T11:55:08.871Z,25.00
2018-09-05T11:57:36.591Z,25.10
2018-09-05T12:00:04.400Z,25.10
2018-09-05T12:02:32.038Z,25.00
2018-09-05T12:04:59.756Z,24.70
2018-09-05T12:07:27.460Z,24.40
2018-09-05T12:09:55.139Z,24.00
2018-09-05T12:14:50.441Z,23.60
2018-09-05T12:17:18.172Z,23.40
2018-09-05T12:19:45.843Z,23.30
2018-09-05T12:22:14.152Z,23.20
2018-09-05T12:24:41.828Z,23.10
2018-09-05T12:27:09.575Z,23.00
2018-09-05T12:29:37.337Z,22.90
2018-09-05T12:32:05.022Z,22.80
2018-09-05T12:34:32.661Z,22.70
2018-09-05T12:37:00.353Z,22.70
2018-09-05T12:39:28.022Z,22.80
2018-09-05T12:41:55.697Z,23.30
2018-09-05T12:44:23.330Z,23.90
2018-09-05T12:46:51.015Z,24.60
2018-09-05T12:49:18.652Z,24.70
2018-09-05T12:51:46.291Z,24.40
2018-09-05T12:54:14.004Z,24.00
2018-09-05T12:56:41.676Z,23.70
2018-09-05T12:59:09.424Z,23.70
2018-09-05T13:01:37.045Z,24.00
2018-09-05T13:04:04.847Z,23.90
2018-09-05T13:06:32.588Z,23.90
2018-09-05T13:11:27.993Z,24.50
2018-09-05T13:13:55.716Z,24.60
2018-09-05T13:16:23.331Z,24.80
2018-09-05T13:18:51.070Z,24.50
2018-09-05T13:21:18.712Z,24.50
2018-09-05T13:23:46.523Z,24.30
2018-09-05T13:26:14.202Z,24.20
2018-09-05T13:28:41.906Z,23.90
2018-09-05T13:31:09.606Z,23.80
2018-09-05T13:33:37.293Z,23.70
2018-09-05T13:36:05.087Z,23.60
2018-09-05T13:38:32.851Z,24.10
2018-09-05T13:41:00.591Z,24.90
2018-09-05T13:43:28.237Z,25.10
2018-09-05T13:45:55.928Z,24.80
2018-09-05T13:48:23.613Z,24.50
2018-09-05T13:50:51.388Z,24.30
2018-09-05T13:53:19.074Z,24.00
2018-09-05T13:55:46.817Z,23.70
2018-09-05T13:58:14.466Z,23.70
2018-09-05T14:00:42.848Z,24.70
2018-09-05T14:03:10.721Z,25.30
2018-09-05T14:05:38.529Z,26.10
2018-09-05T14:08:06.264Z,26.50
2018-09-05T14:10:34.018Z,27.40
2018-09-05T14:13:01.701Z,28.20
2018-09-05T14:15:29.403Z,28.50
2018-09-05T14:20:24.738Z,27.10
2018-09-05T14:22:52.407Z,26.70
2018-09-05T14:25:20.060Z,26.80
2018-09-05T14:27:48.591Z,26.30
2018-09-05T14:30:16.283Z,25.80
2018-09-05T14:32:43.952Z,25.20
2018-09-05T14:35:11.618Z,24.40
2018-09-05T14:37:39.334Z,23.90
2018-09-05T14:40:07.025Z,23.90
2018-09-05T14:42:34.708Z,24.60
2018-09-05T14:45:02.411Z,25.40
2018-09-05T14:47:30.108Z,26.20
2018-09-05T14:52:25.373Z,27.60
2018-09-05T14:54:53.117Z,28.20
2018-09-05T14:57:20.812Z,29.20
2018-09-05T14:59:48.541Z,29.60
2018-09-05T15:04:43.811Z,28.00
2018-09-05T15:07:11.509Z,27.10
2018-09-05T15:09:39.232Z,26.80
2018-09-05T15:12:06.878Z,27.20
2018-09-05T15:14:34.581Z,27.50
2018-09-05T15:17:02.286Z,27.20
2018-09-05T15:19:29.977Z,26.50
2018-09-05T15:21:57.668Z,25.80
2018-09-05T15:24:25.350Z,25.00
2018-09-05T15:26:53.008Z,24.70
2018-09-05T15:29:20.728Z,25.40
2018-09-05T15:31:48.421Z,26.70
2018-09-05T15:34:16.132Z,27.90
2018-09-05T15:36:44.012Z,28.30
2018-09-05T15:39:12.394Z,28.50
2018-09-05T15:44:07.743Z,29.20
2018-09-05T15:49:03.023Z,28.80
2018-09-05T15:51:30.747Z,28.80
2018-09-05T15:53:58.500Z,28.80
2018-09-05T15:56:26.136Z,29.00
2018-09-05T15:58:53.769Z,29.00
2018-09-05T16:01:21.479Z,29.30
2018-09-05T16:03:49.204Z,29.20
2018-09-05T16:06:16.922Z,29.00
2018-09-05T16:08:44.649Z,28.60
2018-09-05T16:11:12.320Z,28.50
2018-09-05T16:13:40.017Z,28.50
2018-09-05T16:16:07.703Z,28.40
2018-09-05T16:21:02.998Z,28.00
2018-09-05T16:23:30.676Z,27.70
2018-09-05T16:25:58.316Z,27.40
2018-09-05T16:28:26.059Z,27.00
2018-09-05T16:30:53.747Z,26.70
2018-09-05T16:33:21.424Z,26.20
2018-09-05T16:35:49.142Z,25.80
2018-09-05T16:38:16.797Z,25.60
2018-09-05T16:43:12.133Z,24.70
2018-09-05T16:45:39.837Z,24.20
2018-09-05T16:48:07.798Z,23.70
2018-09-05T16:50:35.488Z,23.30
2018-09-05T16:53:03.270Z,22.90
2018-09-05T16:55:30.977Z,22.50
2018-09-05T16:57:58.679Z,22.20
2018-09-05T17:02:53.906Z,21.70
2018-09-05T17:05:21.584Z,21.40
2018-09-05T17:07:49.310Z,21.20
2018-09-05T17:10:17.009Z,21.00
2018-09-05T17:17:39.809Z,20.40
2018-09-05T17:20:07.598Z,20.20
2018-09-05T17:22:35.332Z,20.10
2018-09-05T17:25:03.062Z,19.80
2018-09-05T17:27:30.820Z,19.60
2018-09-05T17:29:58.548Z,19.50
2018-09-05T17:32:26.214Z,19.30
2018-09-05T17:34:53.959Z,19.10
2018-09-05T17:39:49.913Z,18.70
2018-09-05T17:42:17.592Z,18.50
2018-09-05T17:44:45.290Z,18.40
2018-09-05T17:47:12.959Z,18.20
2018-09-05T17:49:40.662Z,18.10
2018-09-05T17:52:08.364Z,17.80
2018-09-05T17:54:36.017Z,17.80
2018-09-05T17:57:03.763Z,17.60
2018-09-05T17:59:31.461Z,17.50
2018-09-05T18:01:59.249Z,17.30
2018-09-05T18:04:26.978Z,17.30
2018-09-05T18:06:54.687Z,17.20
2018-09-05T18:09:22.357Z,17.10
2018-09-05T18:11:50.139Z,17.10
2018-09-05T18:14:17.907Z,17.00
2018-09-05T18:16:45.653Z,16.90
2018-09-05T18:19:13.344Z,17.00
2018-09-05T18:21:41.064Z,16.90
2018-09-05T18:24:08.801Z,16.90
2018-09-05T18:26:36.464Z,17.00
2018-09-05T18:31:31.735Z,17.10
2018-09-05T18:33:59.474Z,17.10
2018-09-05T18:36:27.149Z,17.00
2018-09-05T18:41:22.440Z,16.80
2018-09-05T18:43:50.139Z,16.70
2018-09-05T18:48:54.892Z,16.50
2018-09-05T18:53:51.693Z,16.30
2018-09-05T18:56:19.656Z,16.30
2018-09-05T18:58:47.568Z,16.20
2018-09-05T19:01:15.566Z,16.20
2018-09-05T19:03:43.639Z,16.20
2018-09-05T19:06:11.950Z,16.10
2018-09-05T19:08:40.016Z,16.10
2018-09-05T19:11:08.253Z,16.00
2018-09-05T19:13:38.331Z,15.90
2018-09-05T19:16:09.176Z,15.80
2018-09-05T19:21:04.990Z,15.80
2018-09-05T19:23:33.200Z,15.80
2018-09-05T19:26:00.924Z,15.80
2018-09-05T19:28:28.597Z,15.80
2018-09-05T19:30:56.300Z,15.70
2018-09-05T19:33:24.016Z,15.70
2018-09-05T19:35:51.715Z,15.60
2018-09-05T19:40:47.048Z,15.50
2018-09-05T19:43:14.784Z,15.50
2018-09-05T19:45:42.458Z,15.50
2018-09-05T19:48:10.184Z,15.50
2018-09-05T19:50:37.930Z,15.50
2018-09-05T19:53:05.689Z,15.40
2018-09-05T19:55:33.344Z,15.40
2018-09-05T19:58:01.058Z,15.50
2018-09-05T20:00:28.728Z,15.40
2018-09-05T20:02:56.433Z,15.40
2018-09-05T20:05:24.107Z,15.40
2018-09-05T20:07:51.798Z,15.30
2018-09-05T20:12:47.063Z,15.20
2018-09-05T20:15:14.733Z,15.20
2018-09-05T20:17:42.415Z,15.10
2018-09-05T20:27:32.878Z,15.10
2018-09-05T20:30:00.634Z,15.00
2018-09-05T20:32:28.318Z,15.00
2018-09-05T20:34:55.980Z,14.90
2018-09-05T20:37:23.715Z,14.90
2018-09-05T20:39:51.396Z,14.90
2018-09-05T20:44:46.631Z,14.90
2018-09-05T20:49:41.904Z,14.80
2018-09-05T20:52:09.625Z,14.90
2018-09-05T20:54:37.298Z,14.80
2018-09-05T20:57:04.954Z,14.80
2018-09-05T20:59:32.625Z,14.80
2018-09-05T21:02:00.305Z,14.70
2018-09-05T21:04:28.053Z,14.70
2018-09-05T21:09:23.804Z,14.70
2018-09-05T21:11:51.463Z,14.60
2018-09-05T21:16:46.786Z,14.50
2018-09-05T21:19:14.439Z,14.60
2018-09-05T21:21:42.116Z,14.60
2018-09-05T21:24:09.844Z,14.50
2018-09-05T21:26:37.587Z,14.50
2018-09-05T21:31:32.880Z,14.50
2018-09-05T21:34:00.546Z,14.50
2018-09-05T21:36:28.264Z,14.40
2018-09-05T21:38:55.953Z,14.40
2018-09-05T21:41:23.589Z,14.40
2018-09-05T21:43:51.269Z,14.40
2018-09-05T21:48:46.503Z,14.30
2018-09-05T21:51:14.174Z,14.30
2018-09-05T21:53:41.881Z,14.30
2018-09-05T21:56:09.546Z,14.30
2018-09-05T21:58:37.526Z,14.20
2018-09-05T22:01:05.266Z,14.10
2018-09-05T22:03:33.810Z,14.10
2018-09-05T22:08:29.075Z,14.10
2018-09-05T22:11:01.281Z,14.20
2018-09-05T22:13:29.027Z,14.10
2018-09-05T22:18:24.204Z,14.00
2018-09-05T22:20:51.850Z,14.00
2018-09-05T22:23:19.544Z,14.00
2018-09-05T22:25:47.214Z,13.90
2018-09-05T22:28:14.912Z,13.90
2018-09-05T22:30:42.560Z,13.90
2018-09-05T22:35:37.905Z,13.80
2018-09-05T22:38:05.575Z,13.70
2018-09-05T22:41:05.317Z,13.70
2018-09-05T22:43:44.385Z,13.60
2018-09-05T22:51:52.041Z,13.50
2018-09-05T22:54:35.141Z,13.50
2018-09-05T22:59:17.791Z,13.40
2018-09-05T23:07:42.396Z,13.30
2018-09-05T23:10:21.414Z,13.30
2018-09-05T23:14:03.186Z,13.20
2018-09-05T23:16:42.196Z,13.10
2018-09-05T23:19:27.841Z,13.10
2018-09-05T23:21:55.517Z,13.20
2018-09-05T23:24:23.244Z,13.40
2018-09-05T23:26:50.975Z,13.30
2018-09-05T23:29:18.695Z,13.20
2018-09-05T23:31:46.410Z,13.20
2018-09-05T23:34:14.092Z,13.10
2018-09-05T23:39:09.250Z,13.20
2018-09-05T23:41:36.958Z,13.20
2018-09-05T23:46:32.254Z,13.10
2018-09-05T23:48:59.982Z,13.10
2018-09-05T23:56:22.872Z,13.00
